ePrivacy and GPDR Cookie Consent by Cookie Consent
EmailTwitter


Observations de surface / Québec / CYUL (71627)

Régions: Québec | Canada | États-Unis | Europe | France | UK | Ailleurs
Station
Affichage
Infos & localisation pour CYUL (71627) | Aide pour décoder les METARs

Observations prises le 2021-09-22 à 12H00 UTC à MONTREAL INTL A, QB (CYUL)

Etat du ciel: partiellement nuageux.

Température: 19.0 Celsius

Point de rosée: 15.0 Celsius

Humidité relative: 78%

Indice Humidex 23.

Vents: Sud-sud-est à 22 km/h ou 12 noeuds.

Pression au niveau moyen de la mer: 101.84 kilopascals.

Calage altimétrique: 101.83 kilopascals ou 30.07 pouces de mercure.

Visibilité horizontale: 15.00 milles terrestres ou 24.00 kilomètres.

Hauteur du plafond: 1189 mètres ( 3900 pieds ).

Observation METAR:

CYUL 221200Z 16012KT 15SM BKN039 19/15 A3007 RMK SC7 SLP184 DENSITY ALT 500FT=